Time;durP1;ratioP1;P1;durP2;ratioP2;P2;SDS_P1;SDS_P2;PMS_P1;PMS_P2;Temp;Humidity;BMP_temperature;BMP_pressure;BME280_temperature;BME280_humidity;BME280_pressure;Samples;Min_cycle;Max_cycle;Signal;HPM_P1;HPM_P2
2021/09/14 00:01:32;;;;;;;7.75;5.55;;;;;;;13.38;100.00;96663.88;5020859;28;20129;-63
2021/09/14 00:03:57;;;;;;;8.00;5.35;;;;;;;13.24;100.00;96663.00;5020621;28;20052;-64
2021/09/14 00:06:23;;;;;;;10.48;4.85;;;;;;;13.14;100.00;96662.53;5028959;28;20060;-65
2021/09/14 00:08:48;;;;;;;9.75;4.95;;;;;;;13.32;100.00;96664.63;5042590;28;20025;-63
2021/09/14 00:11:13;;;;;;;11.68;6.07;;;;;;;13.29;100.00;96663.41;5014917;28;20041;-65
2021/09/14 00:13:39;;;;;;;7.10;4.93;;;;;;;13.31;100.00;96665.81;5021369;28;20038;-65
2021/09/14 00:16:04;;;;;;;9.80;5.18;;;;;;;13.50;100.00;96665.47;5017141;28;20038;-63
2021/09/14 00:18:30;;;;;;;9.68;5.32;;;;;;;13.51;100.00;96669.03;5021474;28;20552;-64
2021/09/14 00:20:56;;;;;;;11.18;5.60;;;;;;;13.49;100.00;96660.38;5020148;28;20621;-65
2021/09/14 00:23:21;;;;;;;12.15;5.13;;;;;;;13.57;100.00;96661.97;5015630;28;20275;-65
2021/09/14 00:25:46;;;;;;;7.80;5.63;;;;;;;13.57;100.00;96653.72;5021990;28;20077;-65
2021/09/14 00:28:12;;;;;;;10.80;5.47;;;;;;;13.59;100.00;96659.63;5016362;28;20052;-65
2021/09/14 00:30:37;;;;;;;8.55;5.00;;;;;;;13.51;100.00;96661.56;5018138;28;20045;-66
2021/09/14 00:33:03;;;;;;;7.35;5.40;;;;;;;13.49;100.00;96657.63;5017117;28;20179;-64
2021/09/14 00:35:28;;;;;;;8.23;5.70;;;;;;;13.38;100.00;96650.13;5015759;28;20461;-64
2021/09/14 00:37:54;;;;;;;10.60;5.57;;;;;;;13.31;100.00;96652.06;5019449;28;20033;-64
2021/09/14 00:40:19;;;;;;;6.95;4.60;;;;;;;13.33;100.00;96653.22;5015796;28;20126;-63
2021/09/14 00:42:45;;;;;;;9.82;5.55;;;;;;;13.32;100.00;96651.63;5018394;28;20038;-65
2021/09/14 00:45:10;;;;;;;8.02;5.32;;;;;;;13.44;100.00;96649.75;5013636;28;20490;-66
2021/09/14 00:47:36;;;;;;;15.20;5.10;;;;;;;13.51;100.00;96650.56;5021053;28;20038;-64
2021/09/14 00:50:04;;;;;;;10.20;5.53;;;;;;;13.66;100.00;96648.63;5014747;28;20444;-64
2021/09/14 00:52:30;;;;;;;8.30;4.80;;;;;;;13.72;100.00;96644.34;5020662;28;20041;-65
2021/09/14 00:54:56;;;;;;;7.75;5.13;;;;;;;13.76;100.00;96642.38;5022144;28;20037;-66
2021/09/14 00:57:21;;;;;;;9.40;4.65;;;;;;;13.80;100.00;96641.63;5017637;28;20045;-65
2021/09/14 00:59:46;;;;;;;7.38;5.00;;;;;;;13.75;100.00;96638.03;5023173;28;20046;-64
2021/09/14 01:02:12;;;;;;;6.88;4.75;;;;;;;13.65;100.00;96640.75;5015466;28;20033;-65
2021/09/14 01:04:37;;;;;;;8.02;5.10;;;;;;;13.69;100.00;96644.34;5020404;28;20426;-65
2021/09/14 01:07:04;;;;;;;6.93;4.85;;;;;;;13.81;100.00;96637.66;5033069;28;20037;-64
2021/09/14 01:09:32;;;;;;;7.80;4.85;;;;;;;13.72;100.00;96635.28;5024632;28;20057;-65
2021/09/14 01:11:58;;;;;;;8.63;5.18;;;;;;;13.49;100.00;96636.41;5020475;28;20041;-65
2021/09/14 01:14:24;;;;;;;9.80;4.97;;;;;;;13.41;100.00;96636.75;5014930;28;20569;-65
2021/09/14 01:16:49;;;;;;;11.73;4.93;;;;;;;13.41;100.00;96634.00;5021100;28;20530;-64
2021/09/14 01:19:15;;;;;;;7.53;5.10;;;;;;;13.36;100.00;96632.41;5014397;28;20042;-65
2021/09/14 01:21:40;;;;;;;10.10;5.22;;;;;;;13.34;100.00;96635.56;5026814;28;20406;-63
2021/09/14 01:24:06;;;;;;;7.57;4.95;;;;;;;13.34;100.00;96629.25;5027012;28;20072;-65
2021/09/14 01:26:33;;;;;;;9.52;5.43;;;;;;;13.35;100.00;96625.34;5034953;28;20044;-66
2021/09/14 01:29:05;;;;;;;7.97;5.00;;;;;;;13.38;100.00;96627.31;5031409;28;20525;-64
2021/09/14 01:31:30;;;;;;;9.93;5.35;;;;;;;13.38;100.00;96628.09;5024210;28;20075;-65
2021/09/14 01:33:56;;;;;;;6.25;4.63;;;;;;;13.34;100.00;96621.00;5025987;28;20069;-64
2021/09/14 01:36:21;;;;;;;8.27;5.40;;;;;;;13.32;100.00;96626.88;5024710;28;20046;-64
2021/09/14 01:38:47;;;;;;;7.13;4.97;;;;;;;13.30;100.00;96620.97;5025298;28;20081;-64
2021/09/14 01:41:13;;;;;;;9.25;4.82;;;;;;;13.32;100.00;96620.59;5024569;28;20050;-65
2021/09/14 01:43:42;;;;;;;9.30;4.70;;;;;;;13.29;100.00;96629.59;5029794;28;20053;-64
2021/09/14 01:46:08;;;;;;;9.90;5.13;;;;;;;13.39;100.00;96624.16;5037533;28;20041;-65
2021/09/14 01:48:34;;;;;;;10.02;5.20;;;;;;;13.47;100.00;96627.75;5032180;28;20088;-66
2021/09/14 01:51:00;;;;;;;10.00;5.70;;;;;;;13.48;100.00;96628.53;5042587;28;20640;-64
2021/09/14 01:53:27;;;;;;;10.52;4.68;;;;;;;13.47;100.00;96630.50;5039203;28;20131;-63
2021/09/14 01:55:54;;;;;;;7.82;5.28;;;;;;;13.46;100.00;96636.38;5025938;28;20111;-66
2021/09/14 01:58:20;;;;;;;8.05;4.25;;;;;;;13.44;100.00;96634.03;5025658;28;20043;-65
2021/09/14 02:03:30;;;;;;;8.02;4.70;;;;;;;13.37;100.00;96632.03;5029432;28;20037;-64
2021/09/14 02:08:47;;;;;;;7.28;5.05;;;;;;;13.29;100.00;96635.91;5030807;28;20179;-64
2021/09/14 02:59:38;;;;;;;7.20;4.80;;;;;;;12.91;100.00;96638.06;5034931;28;20064;-66
2021/09/14 03:02:05;;;;;;;10.77;5.55;;;;;;;12.83;100.00;96639.16;5029377;28;20041;-65
2021/09/14 03:04:31;;;;;;;10.50;5.68;;;;;;;12.83;100.00;96630.91;5041133;28;20119;-66
2021/09/14 03:06:57;;;;;;;10.52;5.32;;;;;;;12.82;100.00;96630.16;5034611;28;20060;-66
2021/09/14 03:09:23;;;;;;;10.00;5.20;;;;;;;12.82;100.00;96629.38;5032688;28;20706;-66
2021/09/14 03:11:48;;;;;;;8.73;4.95;;;;;;;12.91;100.00;96621.56;5029179;28;20107;-65
2021/09/14 03:14:14;;;;;;;9.48;5.22;;;;;;;13.01;100.00;96629.06;5017344;28;20045;-63
2021/09/14 03:16:39;;;;;;;10.07;5.03;;;;;;;13.04;100.00;96615.75;5030069;28;20594;-66
2021/09/14 03:19:06;;;;;;;10.40;5.65;;;;;;;12.96;100.00;96618.44;5025270;28;20052;-63
2021/09/14 03:21:31;;;;;;;8.82;5.28;;;;;;;12.89;100.00;96620.34;5038265;28;20124;-67
2021/09/14 03:23:58;;;;;;;7.47;4.88;;;;;;;12.85;100.00;96622.31;5040875;28;20182;-64
2021/09/14 03:26:23;;;;;;;8.95;5.10;;;;;;;12.93;100.00;96626.69;5014692;28;20588;-66
2021/09/14 03:28:50;;;;;;;9.20;4.97;;;;;;;12.86;100.00;96624.66;5025319;28;20424;-66
2021/09/14 03:31:16;;;;;;;8.30;4.78;;;;;;;12.83;100.00;96622.69;5024926;28;20071;-66
2021/09/14 03:33:46;;;;;;;6.97;4.20;;;;;;;12.82;100.00;96619.16;5021779;28;20120;-65
2021/09/14 03:36:12;;;;;;;;;;;;;;;12.80;100.00;96621.50;5024300;28;20056;-64
2021/09/14 03:38:37;;;;;;;7.45;4.60;;;;;;;12.72;100.00;96616.34;5022186;28;19921;-64
2021/09/14 03:41:02;;;;;;;7.57;4.90;;;;;;;12.61;100.00;96619.78;5024686;28;20117;-63
2021/09/14 03:43:28;;;;;;;8.57;4.90;;;;;;;12.50;100.00;96623.63;5026830;28;20045;-66
2021/09/14 03:45:53;;;;;;;11.98;5.35;;;;;;;12.33;100.00;96616.81;5027855;28;20042;-66
2021/09/14 03:48:19;;;;;;;9.23;5.05;;;;;;;12.30;100.00;96614.81;5024585;28;20037;-64
2021/09/14 03:50:47;;;;;;;9.23;5.82;;;;;;;12.57;100.00;96618.19;5024360;28;20065;-66
2021/09/14 03:53:13;;;;;;;7.13;4.65;;;;;;;12.67;100.00;96616.69;5027169;28;20044;-63
2021/09/14 03:55:38;;;;;;;7.60;5.35;;;;;;;12.67;100.00;96619.44;5026342;28;20138;-65
2021/09/14 03:58:04;;;;;;;8.30;5.00;;;;;;;12.56;100.00;96616.59;5020338;28;20033;-64
2021/09/14 04:00:29;;;;;;;7.28;4.63;;;;;;;12.48;100.00;96615.78;5022802;28;20080;-65
2021/09/14 04:03:05;;;;;;;8.05;5.03;;;;;;;12.44;100.00;96612.19;5029419;28;20049;-63
2021/09/14 04:05:38;;;;;;;9.13;5.07;;;;;;;12.45;100.00;96611.03;5019203;28;20045;-66
2021/09/14 04:10:41;;;;;;;8.48;5.07;;;;;;;12.39;100.00;96615.31;5020305;28;20061;-66
2021/09/14 04:13:08;;;;;;;8.75;5.05;;;;;;;12.26;100.00;96614.03;5017151;28;20095;-65
2021/09/14 04:15:34;;;;;;;9.13;5.28;;;;;;;12.22;100.00;96614.78;5039099;28;20067;-65
2021/09/14 04:18:00;;;;;;;8.07;6.00;;;;;;;12.16;100.00;96621.00;5053725;28;20040;-65
2021/09/14 04:20:26;;;;;;;7.68;5.65;;;;;;;11.91;100.00;96623.50;5043756;28;20118;-65
2021/09/14 04:22:51;;;;;;;9.95;5.57;;;;;;;11.81;100.00;96620.25;5033168;28;20072;-64
2021/09/14 04:25:17;;;;;;;11.63;4.95;;;;;;;11.76;100.00;96628.03;5026200;28;20037;-64
2021/09/14 04:27:42;;;;;;;12.35;6.38;;;;;;;11.80;100.00;96628.88;5032044;28;20065;-63
2021/09/14 04:30:09;;;;;;;7.57;5.60;;;;;;;11.73;100.00;96637.03;5023235;28;20191;-65
2021/09/14 04:32:35;;;;;;;8.77;5.40;;;;;;;11.69;100.00;96636.19;5029489;28;20037;-67
2021/09/14 04:35:01;;;;;;;9.60;5.70;;;;;;;11.66;100.00;96630.28;5015415;28;20400;-65
2021/09/14 04:37:26;;;;;;;11.63;5.40;;;;;;;11.80;100.00;96626.13;5027719;28;20037;-66
2021/09/14 04:39:52;;;;;;;12.00;5.70;;;;;;;11.89;100.00;96634.06;5027440;28;20049;-66
2021/09/14 04:42:18;;;;;;;8.30;5.35;;;;;;;11.97;100.00;96638.47;5022418;28;20135;-64
2021/09/14 04:44:43;;;;;;;10.05;5.60;;;;;;;12.21;100.00;96626.94;5023286;28;20047;-66
2021/09/14 04:47:09;;;;;;;9.10;5.43;;;;;;;12.38;100.00;96632.94;5020737;28;20130;-63
2021/09/14 04:49:34;;;;;;;8.77;5.13;;;;;;;12.30;100.00;96642.28;5041356;28;20530;-64
2021/09/14 04:52:05;;;;;;;7.22;4.65;;;;;;;12.21;100.00;96629.69;5032767;28;20041;-65
2021/09/14 04:54:30;;;;;;;10.68;4.90;;;;;;;12.21;100.00;96629.69;5019461;28;20103;-65
2021/09/14 04:56:55;;;;;;;9.65;4.85;;;;;;;12.28;100.00;96625.41;5034762;28;20042;-64
2021/09/14 04:59:21;;;;;;;11.57;5.50;;;;;;;12.26;100.00;96625.78;5035317;28;20056;-65
2021/09/14 05:01:46;;;;;;;8.00;5.20;;;;;;;12.25;100.00;96621.47;5030454;28;20504;-65
2021/09/14 05:04:12;;;;;;;8.55;5.72;;;;;;;12.20;100.00;96622.59;5019998;28;20033;-65
2021/09/14 05:06:37;;;;;;;12.43;5.97;;;;;;;12.23;100.00;96627.34;5035621;28;20060;-65
2021/09/14 05:09:03;;;;;;;14.93;6.65;;;;;;;12.14;100.00;96624.13;5043582;28;20040;-65
2021/09/14 05:11:28;;;;;;;11.35;6.47;;;;;;;11.92;100.00;96625.09;5034064;28;20139;-66
2021/09/14 05:13:53;;;;;;;17.65;6.85;;;;;;;11.65;100.00;96620.47;5030391;28;20047;-65
2021/09/14 05:16:19;;;;;;;13.05;7.60;;;;;;;11.59;100.00;96621.19;5034030;28;20040;-66
2021/09/14 05:18:47;;;;;;;15.18;6.90;;;;;;;12.06;100.00;96627.97;5047306;28;20045;-65
2021/09/14 05:21:13;;;;;;;9.90;6.07;;;;;;;12.78;100.00;96629.34;5049287;28;20128;-66
2021/09/14 05:23:38;;;;;;;9.45;6.28;;;;;;;13.47;100.00;96636.00;5065868;28;20041;-66
2021/09/14 05:26:05;;;;;;;9.43;5.80;;;;;;;14.22;100.00;96635.38;5041726;28;20474;-66
2021/09/14 05:28:31;;;;;;;7.22;5.00;;;;;;;14.96;94.02;96635.78;5042382;28;20045;-65
2021/09/14 05:30:58;;;;;;;8.30;5.22;;;;;;;15.51;88.87;96636.41;5027101;28;20592;-66
2021/09/14 05:33:24;;;;;;;9.40;5.70;;;;;;;15.95;85.02;96635.81;5021200;28;20111;-68
2021/09/14 05:35:53;;;;;;;10.60;4.00;;;;;;;16.43;84.16;96635.09;5042265;28;20649;-65
2021/09/14 05:38:20;;;;;;;8.53;4.57;;;;;;;17.24;78.82;96636.75;5027401;28;20114;-67
2021/09/14 05:40:48;;;;;;;9.65;4.18;;;;;;;17.87;74.87;96632.88;5040077;28;20049;-64
2021/09/14 05:43:14;;;;;;;6.72;3.97;;;;;;;18.30;74.34;96635.03;5029627;28;20065;-65
2021/09/14 05:45:39;;;;;;;6.88;3.67;;;;;;;18.87;69.80;96638.88;5038297;28;20472;-66
2021/09/14 05:48:05;;;;;;;10.70;4.00;;;;;;;19.53;67.53;96633.69;5032969;28;20136;-65
2021/09/14 05:50:30;;;;;;;5.63;3.80;;;;;;;20.17;63.39;96629.56;5047064;28;20103;-65
2021/09/14 05:52:55;;;;;;;6.75;3.78;;;;;;;20.62;62.61;96623.34;5045513;28;20044;-65
2021/09/14 05:55:21;;;;;;;8.63;3.55;;;;;;;21.26;59.75;96630.47;5034705;28;20133;-65
2021/09/14 05:57:46;;;;;;;6.15;3.50;;;;;;;21.79;57.82;96627.44;5038532;28;20586;-65
2021/09/14 06:00:13;;;;;;;7.95;3.55;;;;;;;21.99;57.39;96621.69;5028838;28;20038;-66
2021/09/14 06:02:39;;;;;;;5.38;3.50;;;;;;;22.41;55.42;96635.56;5027320;28;20050;-65
2021/09/14 06:05:05;;;;;;;9.38;4.03;;;;;;;22.12;55.90;96631.59;5031115;28;20469;-64
2021/09/14 06:07:31;;;;;;;10.63;4.47;;;;;;;22.22;56.35;96634.50;5028145;28;20041;-66
2021/09/14 06:09:57;;;;;;;4.63;3.13;;;;;;;22.61;54.04;96635.31;5042990;28;20048;-64
2021/09/14 06:12:23;;;;;;;6.80;3.17;;;;;;;23.00;53.33;96641.63;5028511;28;20487;-65
2021/09/14 06:14:48;;;;;;;5.22;2.90;;;;;;;22.99;53.51;96640.03;5025908;28;20071;-65
2021/09/14 06:17:13;;;;;;;7.30;3.95;;;;;;;23.30;53.19;96640.22;5027886;28;20037;-65
2021/09/14 06:19:39;;;;;;;6.85;3.30;;;;;;;22.37;54.90;96634.91;5043795;28;20055;-64
2021/09/14 06:22:04;;;;;;;6.20;3.67;;;;;;;21.18;60.24;96635.47;5038094;28;20041;-64
2021/09/14 06:24:30;;;;;;;6.40;3.60;;;;;;;20.79;62.03;96646.38;5023024;28;20045;-63
2021/09/14 06:26:55;;;;;;;6.00;3.65;;;;;;;21.83;57.81;96642.06;5031175;28;20045;-64
2021/09/14 06:29:21;;;;;;;5.78;3.65;;;;;;;23.16;54.71;96649.09;5013554;28;20065;-65
2021/09/14 06:31:47;;;;;;;4.25;3.40;;;;;;;24.16;51.78;96651.03;5033200;28;20041;-64
2021/09/14 06:34:12;;;;;;;5.82;4.10;;;;;;;25.00;49.51;96658.50;5017930;28;20128;-67
2021/09/14 06:36:37;;;;;;;8.95;3.92;;;;;;;25.67;47.60;96655.31;5031607;28;20044;-65
2021/09/14 06:39:03;;;;;;;10.93;3.55;;;;;;;26.19;46.10;96649.78;5024644;28;20045;-63
2021/09/14 06:41:30;;;;;;;9.60;3.40;;;;;;;25.53;47.64;96659.50;5005699;28;20045;-65
2021/09/14 06:43:55;;;;;;;6.80;4.00;;;;;;;22.69;55.24;96659.75;5031552;28;20099;-67
2021/09/14 06:46:21;;;;;;;5.90;3.85;;;;;;;22.73;55.69;96667.25;5013429;28;20053;-66
2021/09/14 06:48:46;;;;;;;6.78;3.80;;;;;;;21.85;59.72;96656.34;5031263;28;20044;-64
2021/09/14 06:51:12;;;;;;;6.00;3.47;;;;;;;23.96;54.04;96654.19;5026596;28;20040;-65
2021/09/14 06:53:37;;;;;;;5.80;3.38;;;;;;;25.73;48.36;96659.81;5030254;28;20038;-65
2021/09/14 06:56:03;;;;;;;5.20;3.40;;;;;;;26.82;46.34;96661.25;5028488;28;20044;-65
2021/09/14 06:58:28;;;;;;;5.63;3.33;;;;;;;25.37;49.01;96667.00;5036556;28;20129;-65
2021/09/14 07:00:54;;;;;;;7.53;2.97;;;;;;;25.54;48.74;96670.25;5038090;28;20051;-66
2021/09/14 07:03:19;;;;;;;5.82;3.70;;;;;;;24.40;51.55;96667.34;4997024;28;20056;-67
2021/09/14 07:05:45;;;;;;;5.47;3.55;;;;;;;25.24;50.52;96666.34;5026572;28;20087;-64
2021/09/14 07:08:10;;;;;;;5.47;3.35;;;;;;;25.26;49.58;96669.47;5030825;28;20039;-64
2021/09/14 07:10:36;;;;;;;5.13;3.35;;;;;;;25.24;49.57;96669.16;5028557;28;20041;-66
2021/09/14 07:13:01;;;;;;;7.85;3.72;;;;;;;25.44;48.73;96671.50;5020655;28;20051;-65
2021/09/14 07:15:27;;;;;;;6.25;3.72;;;;;;;25.05;50.71;96679.53;5018197;28;20072;-66
2021/09/14 07:17:52;;;;;;;8.73;3.67;;;;;;;25.90;48.63;96662.28;5019283;28;20131;-66
2021/09/14 07:20:17;;;;;;;5.55;3.55;;;;;;;24.55;53.15;96670.38;5020982;28;20045;-65
2021/09/14 07:22:43;;;;;;;5.20;3.90;;;;;;;25.88;49.43;96662.75;5024916;28;20128;-65
2021/09/14 07:25:09;;;;;;;4.57;3.53;;;;;;;25.60;49.83;96656.38;5017154;28;20042;-65
2021/09/14 07:27:34;;;;;;;5.88;3.78;;;;;;;23.98;54.99;96664.94;5022010;28;20060;-66
2021/09/14 07:30:00;;;;;;;4.90;3.85;;;;;;;24.35;53.30;96659.53;5023007;28;20052;-65
2021/09/14 07:32:25;;;;;;;8.25;4.55;;;;;;;23.99;55.27;96660.91;5019281;28;20174;-63
2021/09/14 07:34:51;;;;;;;5.63;3.30;;;;;;;24.92;53.59;96656.47;5035998;28;20037;-67
2021/09/14 07:37:16;;;;;;;5.72;3.38;;;;;;;26.10;50.67;96656.19;5037716;28;20044;-65
2021/09/14 07:39:42;;;;;;;7.85;3.78;;;;;;;28.27;44.70;96663.84;5024453;28;20125;-69
2021/09/14 07:42:07;;;;;;;9.25;3.70;;;;;;;29.14;42.45;96657.75;5023265;28;20132;-64
2021/09/14 07:44:33;;;;;;;4.88;3.33;;;;;;;26.70;48.44;96657.38;5024980;28;20613;-65
2021/09/14 07:46:58;;;;;;;6.25;4.20;;;;;;;25.31;51.92;96656.88;5033524;28;20052;-66
2021/09/14 07:49:23;;;;;;;6.93;3.80;;;;;;;26.12;50.29;96657.25;5036442;28;20051;-64
2021/09/14 07:51:49;;;;;;;7.65;4.00;;;;;;;25.90;51.70;96656.69;5034702;28;20043;-67
2021/09/14 07:54:14;;;;;;;7.40;3.78;;;;;;;25.47;54.12;96658.59;5025218;28;20033;-64
2021/09/14 07:56:40;;;;;;;7.22;3.63;;;;;;;27.30;48.43;96663.28;5030922;28;20036;-66
2021/09/14 07:59:05;;;;;;;6.20;3.60;;;;;;;28.53;44.97;96661.19;5019083;28;20044;-65
2021/09/14 08:01:30;;;;;;;6.93;3.92;;;;;;;29.00;43.91;96667.03;5023894;28;20107;-66
2021/09/14 08:03:56;;;;;;;6.00;4.03;;;;;;;29.31;43.57;96661.56;5032244;28;20098;-63
2021/09/14 08:06:21;;;;;;;5.30;3.58;;;;;;;29.31;43.85;96657.97;5036505;28;20175;-67
2021/09/14 08:08:47;;;;;;;8.68;4.18;;;;;;;28.34;45.56;96664.25;5042101;28;20069;-68
2021/09/14 08:11:12;;;;;;;6.95;4.32;;;;;;;28.49;44.71;96675.47;5020246;28;20042;-65
2021/09/14 08:13:38;;;;;;;13.20;4.30;;;;;;;28.54;46.00;96668.41;5035308;28;20049;-66
2021/09/14 08:16:04;;;;;;;15.68;6.22;;;;;;;29.84;42.74;96668.09;5046284;28;20101;-64
2021/09/14 08:18:30;;;;;;;7.50;4.40;;;;;;;29.44;43.17;96661.22;5035057;28;20922;-66
2021/09/14 08:20:55;;;;;;;6.65;4.65;;;;;;;27.71;47.19;96661.53;5028302;28;20046;-65
2021/09/14 08:23:21;;;;;;;7.47;4.40;;;;;;;28.51;45.72;96666.53;5029708;28;20076;-65
2021/09/14 08:25:46;;;;;;;6.93;4.40;;;;;;;29.23;44.35;96668.91;5038554;28;20041;-66
2021/09/14 08:28:11;;;;;;;8.57;4.43;;;;;;;29.66;42.93;96668.41;5023135;28;20049;-65
2021/09/14 08:30:37;;;;;;;8.00;4.20;;;;;;;30.08;42.27;96667.81;5054736;28;20056;-65
2021/09/14 08:33:03;;;;;;;13.07;6.28;;;;;;;29.95;42.22;96669.50;5034187;28;20052;-63
2021/09/14 08:35:28;;;;;;;7.95;4.80;;;;;;;29.77;42.71;96676.25;5025442;28;20045;-63
2021/09/14 08:37:53;;;;;;;9.43;4.40;;;;;;;29.80;42.56;96664.72;5021923;28;20041;-63
2021/09/14 08:40:19;;;;;;;9.00;4.43;;;;;;;30.09;42.72;96669.38;5015899;28;20410;-63
2021/09/14 08:42:45;;;;;;;5.72;4.18;;;;;;;30.54;41.04;96677.50;5022679;28;20053;-64
2021/09/14 08:45:11;;;;;;;6.43;3.83;;;;;;;30.21;40.92;96669.47;5014880;28;20065;-64
2021/09/14 08:47:38;;;;;;;6.05;4.30;;;;;;;30.29;41.49;96671.34;5019708;28;20677;-64
2021/09/14 08:50:09;;;;;;;7.22;3.92;;;;;;;28.99;44.00;96671.88;5019389;28;20041;-63
2021/09/14 08:52:35;;;;;;;7.28;4.50;;;;;;;28.13;45.41;96669.00;5032306;28;20045;-66
2021/09/14 08:55:01;;;;;;;6.43;4.68;;;;;;;25.61;53.87;96676.81;5037799;28;20393;-66
2021/09/14 08:57:26;;;;;;;8.07;4.10;;;;;;;27.12;49.89;96673.41;5021732;28;20107;-67
2021/09/14 08:59:56;;;;;;;7.45;3.72;;;;;;;28.47;46.47;96663.94;5027909;28;20045;-65
2021/09/14 09:02:22;;;;;;;7.07;4.57;;;;;;;28.22;47.08;96670.94;5031542;28;20407;-66
2021/09/14 09:04:55;;;;;;;8.82;4.47;;;;;;;28.42;46.77;96671.00;5025434;28;20053;-65
2021/09/14 09:07:49;;;;;;;17.73;6.45;;;;;;;29.44;44.57;96664.03;5014302;28;20084;-65
2021/09/14 09:10:16;;;;;;;7.93;4.45;;;;;;;29.34;45.33;96663.41;4991762;28;20069;-65
2021/09/14 09:12:47;;;;;;;9.65;3.80;;;;;;;29.84;43.92;96667.34;5017629;28;20126;-65
2021/09/14 09:15:29;;;;;;;8.88;3.67;;;;;;;30.08;43.01;96669.88;5020481;28;20036;-65
2021/09/14 09:18:10;;;;;;;9.75;4.53;;;;;;;29.27;44.40;96663.81;5019523;28;20037;-64
2021/09/14 09:20:41;;;;;;;6.38;4.28;;;;;;;28.52;45.95;96668.09;5017961;28;20045;-63
2021/09/14 09:23:11;;;;;;;20.60;7.85;;;;;;;29.25;44.90;96662.78;5011459;28;20041;-66
2021/09/14 09:25:37;;;;;;;14.63;6.45;;;;;;;29.09;45.79;96666.91;5014692;28;20515;-64
2021/09/14 09:28:11;;;;;;;7.88;4.40;;;;;;;30.10;42.94;96658.84;5018948;28;20045;-64
2021/09/14 09:30:42;;;;;;;6.43;4.40;;;;;;;30.48;41.95;96663.31;5018835;28;20084;-65
2021/09/14 09:33:09;;;;;;;11.32;5.18;;;;;;;29.71;42.76;96667.66;5013619;28;20073;-64
2021/09/14 09:35:38;;;;;;;8.77;4.57;;;;;;;29.88;43.07;96662.25;5020136;28;20045;-64
2021/09/14 09:38:04;;;;;;;6.68;4.38;;;;;;;29.81;44.07;96657.03;5015568;28;20467;-64
2021/09/14 09:40:38;;;;;;;5.95;3.97;;;;;;;30.10;43.02;96659.63;5031953;28;20482;-66
2021/09/14 09:43:07;;;;;;;13.68;6.40;;;;;;;30.19;43.01;96669.19;5016977;28;20123;-63
2021/09/14 09:45:43;;;;;;;7.05;4.03;;;;;;;30.48;41.99;96666.13;5020598;28;20112;-65
2021/09/14 09:48:09;;;;;;;4.85;3.50;;;;;;;30.49;41.74;96659.22;5010714;28;20435;-66
2021/09/14 09:50:36;;;;;;;10.05;5.80;;;;;;;30.26;42.58;96658.22;5021584;28;20751;-66
2021/09/14 09:53:04;;;;;;;7.00;3.80;;;;;;;30.93;41.12;96662.09;5016542;28;20082;-64
2021/09/14 09:55:32;;;;;;;8.07;3.78;;;;;;;29.71;43.42;96667.66;5027773;28;20383;-65
2021/09/14 09:57:57;;;;;;;7.18;4.22;;;;;;;29.49;44.99;96654.09;5034560;28;20047;-65
2021/09/14 10:00:23;;;;;;;8.32;4.00;;;;;;;29.44;44.86;96658.41;5032301;28;20053;-67
2021/09/14 10:03:02;;;;;;;7.32;3.50;;;;;;;29.22;45.73;96650.41;5031739;28;20616;-65
2021/09/14 10:05:34;;;;;;;11.30;4.38;;;;;;;28.83;46.30;96658.31;5018311;28;20050;-64
2021/09/14 10:08:29;;;;;;;12.63;5.05;;;;;;;28.81;46.75;96650.38;5024119;28;20038;-65
2021/09/14 10:10:56;;;;;;;7.20;4.43;;;;;;;28.92;46.96;96649.75;4997772;28;20073;-63
2021/09/14 10:13:36;;;;;;;7.43;4.40;;;;;;;28.88;45.84;96649.97;5025590;28;20104;-65
2021/09/14 10:16:02;;;;;;;8.43;4.28;;;;;;;28.97;46.82;96647.00;5030589;28;20037;-63
2021/09/14 10:18:33;;;;;;;5.80;4.05;;;;;;;29.37;45.67;96644.72;5019032;28;20123;-65
2021/09/14 10:20:59;;;;;;;5.32;3.80;;;;;;;29.79;45.01;96639.81;5023361;28;20076;-63
2021/09/14 10:23:39;;;;;;;5.35;3.40;;;;;;;30.60;43.29;96633.09;5025690;28;20805;-64
2021/09/14 10:26:07;;;;;;;7.13;3.95;;;;;;;30.87;42.14;96642.25;5017282;28;20123;-65
2021/09/14 10:28:47;;;;;;;5.88;3.45;;;;;;;30.77;42.61;96644.47;5021333;28;20517;-65
2021/09/14 10:31:23;;;;;;;8.85;4.18;;;;;;;29.61;44.75;96649.34;5020115;28;20041;-65
2021/09/14 10:34:17;;;;;;;5.22;4.00;;;;;;;29.90;43.90;96649.16;5020560;28;20052;-66
2021/09/14 10:36:57;;;;;;;5.93;3.45;;;;;;;30.11;43.78;96646.28;5020058;28;20045;-65
2021/09/14 10:39:25;;;;;;;8.25;4.25;;;;;;;29.88;43.25;96656.59;5018537;28;20414;-65
2021/09/14 10:41:54;;;;;;;12.05;5.45;;;;;;;28.99;44.91;96654.97;5023057;28;20494;-64
2021/09/14 10:44:31;;;;;;;9.52;5.28;;;;;;;28.62;46.46;96657.53;5021391;28;20052;-65
2021/09/14 10:47:15;;;;;;;7.88;4.00;;;;;;;28.27;47.63;96658.19;5032913;28;20041;-65
2021/09/14 10:49:43;;;;;;;10.93;5.20;;;;;;;27.96;47.85;96645.41;5034907;28;20048;-65
2021/09/14 10:52:09;;;;;;;7.20;4.53;;;;;;;27.86;48.03;96647.50;5036669;28;20040;-63
2021/09/14 10:54:49;;;;;;;17.15;8.63;;;;;;;27.91;48.12;96652.50;5039383;28;20470;-66
2021/09/14 10:57:15;;;;;;;13.63;5.45;;;;;;;26.72;50.70;96642.88;5049491;28;20092;-65
2021/09/14 10:59:50;;;;;;;8.52;4.65;;;;;;;26.79;50.17;96645.31;5053049;28;20101;-68
2021/09/14 11:02:16;;;;;;;6.93;4.30;;;;;;;26.94;50.04;96640.56;5034342;28;20030;-67
2021/09/14 11:04:42;;;;;;;6.88;4.50;;;;;;;26.89;48.74;96635.59;5024077;28;20052;-64
2021/09/14 11:07:12;;;;;;;6.18;3.90;;;;;;;26.83;49.03;96626.25;5019034;28;20297;-65
2021/09/14 11:09:39;;;;;;;11.00;4.45;;;;;;;26.83;49.71;96635.47;5023238;28;20038;-65
2021/09/14 11:12:05;;;;;;;10.25;5.65;;;;;;;27.33;47.99;96631.41;5017332;28;20048;-63
2021/09/14 11:14:36;;;;;;;8.10;4.50;;;;;;;27.38;48.58;96633.56;5027084;28;20054;-65
2021/09/14 11:17:02;;;;;;;5.43;3.72;;;;;;;27.52;47.95;96638.44;5021350;28;20099;-64
2021/09/14 11:19:27;;;;;;;8.93;4.45;;;;;;;27.69;47.26;96627.50;5018971;28;20046;-65
2021/09/14 11:21:53;;;;;;;6.28;3.53;;;;;;;27.96;46.26;96632.09;5022947;28;20133;-66
2021/09/14 11:24:21;;;;;;;5.43;3.33;;;;;;;28.37;46.36;96629.44;5023886;28;20109;-67
2021/09/14 11:26:48;;;;;;;6.60;3.80;;;;;;;28.86;44.90;96631.97;5023004;28;20091;-66
2021/09/14 11:29:13;;;;;;;5.65;3.53;;;;;;;28.72;45.06;96627.94;5017822;28;20030;-66
2021/09/14 11:31:39;;;;;;;6.43;3.80;;;;;;;28.82;45.16;96632.19;5021855;28;20044;-65
2021/09/14 11:34:05;;;;;;;5.22;3.40;;;;;;;29.15;44.25;96629.09;5033981;28;20045;-63
2021/09/14 11:36:32;;;;;;;8.05;3.58;;;;;;;29.66;42.32;96632.47;5036282;28;20121;-66
2021/09/14 11:38:59;;;;;;;5.35;3.33;;;;;;;30.24;41.27;96624.06;5034479;28;20445;-66
2021/09/14 11:41:36;;;;;;;9.25;3.70;;;;;;;30.66;40.00;96618.97;5038142;28;20513;-66
2021/09/14 11:44:03;;;;;;;4.22;2.85;;;;;;;30.02;40.51;96618.22;5039207;28;20107;-63
2021/09/14 11:46:28;;;;;;;6.72;3.42;;;;;;;29.90;41.72;96614.53;5039423;28;20059;-67
2021/09/14 11:49:02;;;;;;;4.75;2.88;;;;;;;30.29;41.38;96616.91;5034163;28;20328;-66
2021/09/14 11:51:29;;;;;;;6.50;3.42;;;;;;;30.75;39.99;96610.28;5038515;28;20126;-66
2021/09/14 11:53:54;;;;;;;6.97;3.40;;;;;;;30.45;40.71;96607.03;5042629;28;20122;-66
2021/09/14 11:56:25;;;;;;;6.10;3.10;;;;;;;30.39;40.90;96604.16;5028544;28;20037;-65
2021/09/14 11:58:50;;;;;;;4.88;3.35;;;;;;;30.08;41.67;96607.75;5028344;28;20047;-67
2021/09/14 12:01:18;;;;;;;5.25;3.28;;;;;;;30.54;40.63;96609.69;5035985;28;20041;-66
2021/09/14 12:03:51;;;;;;;5.68;3.20;;;;;;;30.29;40.66;96603.56;5030337;28;20047;-64
2021/09/14 12:06:32;;;;;;;5.88;3.38;;;;;;;30.48;41.09;96591.88;5026287;28;20040;-65
2021/09/14 12:08:59;;;;;;;6.53;2.75;;;;;;;29.93;42.11;96593.75;5030971;28;20046;-66
2021/09/14 12:11:27;;;;;;;6.57;3.60;;;;;;;29.92;42.13;96598.63;5033460;28;20490;-65
2021/09/14 12:14:19;;;;;;;8.38;3.42;;;;;;;29.82;42.61;96590.81;5042527;28;20117;-65
2021/09/14 12:16:44;;;;;;;5.25;3.15;;;;;;;29.31;44.85;96587.47;5041839;28;20041;-66
2021/09/14 12:19:13;;;;;;;8.23;3.38;;;;;;;29.66;44.26;96578.09;5037228;28;20045;-65
2021/09/14 12:21:39;;;;;;;5.85;3.22;;;;;;;29.90;44.21;96586.28;5031664;28;20084;-65
2021/09/14 12:24:05;;;;;;;5.80;3.55;;;;;;;29.80;45.40;96580.06;5016415;28;20126;-64
2021/09/14 12:26:40;;;;;;;7.28;3.08;;;;;;;29.41;46.24;96580.41;5021647;28;20059;-66